sensor_id;sensor_type;location;lat;lon;timestamp;P1;durP1;ratioP1;P2;durP2;ratioP2
65358;SDS011;52491;45.900;6.346;2023-04-03T00:00:31;1.48;;;0.80;;
65358;SDS011;52491;45.900;6.346;2023-04-03T00:02:57;1.38;;;0.70;;
65358;SDS011;52491;45.900;6.346;2023-04-03T00:05:23;1.15;;;0.80;;
65358;SDS011;52491;45.900;6.346;2023-04-03T00:07:49;0.45;;;0.45;;
65358;SDS011;52491;45.900;6.346;2023-04-03T00:10:15;0.70;;;0.70;;
65358;SDS011;52491;45.900;6.346;2023-04-03T00:12:41;1.30;;;0.50;;
65358;SDS011;52491;45.900;6.346;2023-04-03T00:15:06;1.42;;;0.80;;
65358;SDS011;52491;45.900;6.346;2023-04-03T00:17:32;0.82;;;0.60;;
65358;SDS011;52491;45.900;6.346;2023-04-03T00:19:58;1.00;;;0.70;;
65358;SDS011;52491;45.900;6.346;2023-04-03T00:22:24;0.98;;;0.88;;
65358;SDS011;52491;45.900;6.346;2023-04-03T00:24:51;0.80;;;0.70;;
65358;SDS011;52491;45.900;6.346;2023-04-03T00:27:17;1.23;;;0.80;;
65358;SDS011;52491;45.900;6.346;2023-04-03T00:29:43;0.60;;;0.60;;
65358;SDS011;52491;45.900;6.346;2023-04-03T00:32:08;0.82;;;0.70;;
65358;SDS011;52491;45.900;6.346;2023-04-03T00:34:35;1.05;;;0.65;;
65358;SDS011;52491;45.900;6.346;2023-04-03T00:37:01;1.67;;;0.80;;
65358;SDS011;52491;45.900;6.346;2023-04-03T00:39:26;0.55;;;0.50;;
65358;SDS011;52491;45.900;6.346;2023-04-03T00:41:52;1.10;;;0.60;;
65358;SDS011;52491;45.900;6.346;2023-04-03T00:47:07;0.73;;;0.73;;
65358;SDS011;52491;45.900;6.346;2023-04-03T00:49:36;1.38;;;0.60;;
65358;SDS011;52491;45.900;6.346;2023-04-03T00:52:03;0.57;;;0.57;;
65358;SDS011;52491;45.900;6.346;2023-04-03T00:54:31;1.15;;;0.60;;
65358;SDS011;52491;45.900;6.346;2023-04-03T00:57:00;0.85;;;0.57;;
65358;SDS011;52491;45.900;6.346;2023-04-03T00:59:27;0.82;;;0.70;;
65358;SDS011;52491;45.900;6.346;2023-04-03T01:01:58;0.47;;;0.43;;
65358;SDS011;52491;45.900;6.346;2023-04-03T01:04:34;0.50;;;0.50;;
65358;SDS011;52491;45.900;6.346;2023-04-03T01:07:06;1.13;;;0.45;;
65358;SDS011;52491;45.900;6.346;2023-04-03T01:09:38;0.70;;;0.68;;
65358;SDS011;52491;45.900;6.346;2023-04-03T01:12:22;0.38;;;0.38;;
65358;SDS011;52491;45.900;6.346;2023-04-03T01:14:50;1.00;;;0.50;;
65358;SDS011;52491;45.900;6.346;2023-04-03T01:22:28;0.50;;;0.50;;
65358;SDS011;52491;45.900;6.346;2023-04-03T01:25:00;1.50;;;0.80;;
65358;SDS011;52491;45.900;6.346;2023-04-03T01:27:26;0.98;;;0.80;;
65358;SDS011;52491;45.900;6.346;2023-04-03T01:29:52;1.02;;;0.70;;
65358;SDS011;52491;45.900;6.346;2023-04-03T01:32:18;0.80;;;0.75;;
65358;SDS011;52491;45.900;6.346;2023-04-03T01:34:44;1.38;;;0.98;;
65358;SDS011;52491;45.900;6.346;2023-04-03T01:37:09;0.82;;;0.60;;
65358;SDS011;52491;45.900;6.346;2023-04-03T01:39:35;1.20;;;0.93;;
65358;SDS011;52491;45.900;6.346;2023-04-03T01:42:00;1.02;;;0.93;;
65358;SDS011;52491;45.900;6.346;2023-04-03T01:44:26;0.80;;;0.63;;
65358;SDS011;52491;45.900;6.346;2023-04-03T01:46:52;1.23;;;0.70;;
65358;SDS011;52491;45.900;6.346;2023-04-03T01:49:17;0.45;;;0.45;;
65358;SDS011;52491;45.900;6.346;2023-04-03T01:51:43;1.30;;;0.47;;
65358;SDS011;52491;45.900;6.346;2023-04-03T01:54:08;1.00;;;0.60;;
65358;SDS011;52491;45.900;6.346;2023-04-03T01:56:34;0.60;;;0.60;;
65358;SDS011;52491;45.900;6.346;2023-04-03T01:59:00;0.40;;;0.40;;
65358;SDS011;52491;45.900;6.346;2023-04-03T02:01:25;0.50;;;0.50;;
65358;SDS011;52491;45.900;6.346;2023-04-03T02:03:51;0.70;;;0.45;;
65358;SDS011;52491;45.900;6.346;2023-04-03T02:06:17;0.93;;;0.40;;
65358;SDS011;52491;45.900;6.346;2023-04-03T02:08:42;0.52;;;0.40;;
65358;SDS011;52491;45.900;6.346;2023-04-03T02:11:08;0.65;;;0.63;;
65358;SDS011;52491;45.900;6.346;2023-04-03T02:13:34;1.02;;;0.68;;
65358;SDS011;52491;45.900;6.346;2023-04-03T02:16:05;1.23;;;0.60;;
65358;SDS011;52491;45.900;6.346;2023-04-03T02:18:32;3.83;;;0.70;;
65358;SDS011;52491;45.900;6.346;2023-04-03T02:20:58;0.47;;;0.40;;
65358;SDS011;52491;45.900;6.346;2023-04-03T02:23:23;1.13;;;0.65;;
65358;SDS011;52491;45.900;6.346;2023-04-03T02:25:49;0.80;;;0.57;;
65358;SDS011;52491;45.900;6.346;2023-04-03T02:28:14;0.40;;;0.40;;
65358;SDS011;52491;45.900;6.346;2023-04-03T02:30:40;1.02;;;0.50;;
65358;SDS011;52491;45.900;6.346;2023-04-03T02:33:05;0.82;;;0.50;;
65358;SDS011;52491;45.900;6.346;2023-04-03T02:35:31;1.00;;;0.60;;
65358;SDS011;52491;45.900;6.346;2023-04-03T02:37:57;0.70;;;0.52;;
65358;SDS011;52491;45.900;6.346;2023-04-03T02:40:22;0.77;;;0.45;;
65358;SDS011;52491;45.900;6.346;2023-04-03T02:42:48;0.52;;;0.50;;
65358;SDS011;52491;45.900;6.346;2023-04-03T02:45:13;0.73;;;0.57;;
65358;SDS011;52491;45.900;6.346;2023-04-03T02:47:39;0.55;;;0.50;;
65358;SDS011;52491;45.900;6.346;2023-04-03T02:50:05;0.85;;;0.80;;
65358;SDS011;52491;45.900;6.346;2023-04-03T02:52:30;1.15;;;0.57;;
65358;SDS011;52491;45.900;6.346;2023-04-03T02:54:56;0.57;;;0.40;;
65358;SDS011;52491;45.900;6.346;2023-04-03T02:57:22;0.43;;;0.40;;
65358;SDS011;52491;45.900;6.346;2023-04-03T02:59:48;0.43;;;0.43;;
65358;SDS011;52491;45.900;6.346;2023-04-03T03:02:13;1.33;;;0.38;;
65358;SDS011;52491;45.900;6.346;2023-04-03T03:04:39;0.40;;;0.40;;
65358;SDS011;52491;45.900;6.346;2023-04-03T03:07:04;0.40;;;0.40;;
65358;SDS011;52491;45.900;6.346;2023-04-03T03:09:30;1.00;;;0.40;;
65358;SDS011;52491;45.900;6.346;2023-04-03T03:11:56;0.50;;;0.47;;
65358;SDS011;52491;45.900;6.346;2023-04-03T03:14:22;0.95;;;0.68;;
65358;SDS011;52491;45.900;6.346;2023-04-03T03:16:48;0.40;;;0.40;;
65358;SDS011;52491;45.900;6.346;2023-04-03T03:19:14;0.40;;;0.35;;
65358;SDS011;52491;45.900;6.346;2023-04-03T03:21:40;0.65;;;0.40;;
65358;SDS011;52491;45.900;6.346;2023-04-03T03:24:05;0.60;;;0.45;;
65358;SDS011;52491;45.900;6.346;2023-04-03T03:26:31;0.47;;;0.43;;
65358;SDS011;52491;45.900;6.346;2023-04-03T03:28:57;0.40;;;0.40;;
65358;SDS011;52491;45.900;6.346;2023-04-03T03:31:22;1.05;;;0.60;;
65358;SDS011;52491;45.900;6.346;2023-04-03T03:33:48;0.80;;;0.52;;
65358;SDS011;52491;45.900;6.346;2023-04-03T03:36:13;0.40;;;0.40;;
65358;SDS011;52491;45.900;6.346;2023-04-03T03:38:39;0.60;;;0.50;;
65358;SDS011;52491;45.900;6.346;2023-04-03T03:41:05;0.65;;;0.52;;
65358;SDS011;52491;45.900;6.346;2023-04-03T03:43:31;0.40;;;0.40;;
65358;SDS011;52491;45.900;6.346;2023-04-03T03:45:56;0.50;;;0.50;;
65358;SDS011;52491;45.900;6.346;2023-04-03T03:48:22;0.57;;;0.40;;
65358;SDS011;52491;45.900;6.346;2023-04-03T03:50:48;1.25;;;0.50;;
65358;SDS011;52491;45.900;6.346;2023-04-03T03:53:14;0.45;;;0.45;;
65358;SDS011;52491;45.900;6.346;2023-04-03T03:55:40;0.70;;;0.68;;
65358;SDS011;52491;45.900;6.346;2023-04-03T03:58:06;1.85;;;0.70;;
65358;SDS011;52491;45.900;6.346;2023-04-03T04:00:32;1.30;;;0.90;;
65358;SDS011;52491;45.900;6.346;2023-04-03T04:02:57;1.27;;;1.10;;
65358;SDS011;52491;45.900;6.346;2023-04-03T04:05:23;1.02;;;0.93;;
65358;SDS011;52491;45.900;6.346;2023-04-03T04:07:48;1.95;;;0.95;;
65358;SDS011;52491;45.900;6.346;2023-04-03T04:10:14;1.30;;;0.90;;
65358;SDS011;52491;45.900;6.346;2023-04-03T04:12:40;1.23;;;0.90;;
65358;SDS011;52491;45.900;6.346;2023-04-03T04:15:05;0.75;;;0.70;;
65358;SDS011;52491;45.900;6.346;2023-04-03T04:17:31;2.08;;;0.88;;
65358;SDS011;52491;45.900;6.346;2023-04-03T04:19:57;1.80;;;0.82;;
65358;SDS011;52491;45.900;6.346;2023-04-03T04:22:22;1.38;;;1.00;;
65358;SDS011;52491;45.900;6.346;2023-04-03T04:24:48;1.33;;;1.08;;
65358;SDS011;52491;45.900;6.346;2023-04-03T04:27:14;1.95;;;1.55;;
65358;SDS011;52491;45.900;6.346;2023-04-03T04:29:41;2.60;;;1.27;;
65358;SDS011;52491;45.900;6.346;2023-04-03T04:32:06;1.35;;;0.93;;
65358;SDS011;52491;45.900;6.346;2023-04-03T04:34:33;1.02;;;0.80;;
65358;SDS011;52491;45.900;6.346;2023-04-03T04:37:00;2.00;;;1.38;;
65358;SDS011;52491;45.900;6.346;2023-04-03T04:39:25;2.50;;;1.20;;
65358;SDS011;52491;45.900;6.346;2023-04-03T04:41:51;0.98;;;0.73;;
65358;SDS011;52491;45.900;6.346;2023-04-03T04:44:16;2.03;;;0.95;;
65358;SDS011;52491;45.900;6.346;2023-04-03T04:46:42;1.83;;;1.17;;
65358;SDS011;52491;45.900;6.346;2023-04-03T04:49:08;2.38;;;1.10;;
65358;SDS011;52491;45.900;6.346;2023-04-03T04:51:33;1.35;;;1.10;;
65358;SDS011;52491;45.900;6.346;2023-04-03T04:53:59;2.03;;;1.40;;
65358;SDS011;52491;45.900;6.346;2023-04-03T04:56:25;4.45;;;1.00;;
65358;SDS011;52491;45.900;6.346;2023-04-03T04:58:51;1.38;;;0.70;;
65358;SDS011;52491;45.900;6.346;2023-04-03T05:01:16;2.63;;;0.80;;
65358;SDS011;52491;45.900;6.346;2023-04-03T05:03:43;1.30;;;0.85;;
65358;SDS011;52491;45.900;6.346;2023-04-03T05:06:09;1.83;;;1.08;;
65358;SDS011;52491;45.900;6.346;2023-04-03T05:08:35;1.30;;;0.85;;
65358;SDS011;52491;45.900;6.346;2023-04-03T05:11:01;1.00;;;0.90;;
65358;SDS011;52491;45.900;6.346;2023-04-03T05:13:27;2.10;;;0.90;;
65358;SDS011;52491;45.900;6.346;2023-04-03T05:15:52;6.82;;;0.90;;
65358;SDS011;52491;45.900;6.346;2023-04-03T05:18:18;2.88;;;0.98;;
65358;SDS011;52491;45.900;6.346;2023-04-03T05:20:44;5.78;;;1.00;;
65358;SDS011;52491;45.900;6.346;2023-04-03T05:23:10;1.65;;;1.30;;
65358;SDS011;52491;45.900;6.346;2023-04-03T05:25:37;1.98;;;0.85;;
65358;SDS011;52491;45.900;6.346;2023-04-03T05:28:05;1.80;;;1.17;;
65358;SDS011;52491;45.900;6.346;2023-04-03T05:30:32;0.90;;;0.70;;
65358;SDS011;52491;45.900;6.346;2023-04-03T05:32:59;3.10;;;0.70;;
65358;SDS011;52491;45.900;6.346;2023-04-03T05:35:26;7.28;;;0.82;;
65358;SDS011;52491;45.900;6.346;2023-04-03T05:37:51;7.82;;;1.90;;
65358;SDS011;52491;45.900;6.346;2023-04-03T05:40:17;2.30;;;1.33;;
65358;SDS011;52491;45.900;6.346;2023-04-03T05:42:43;3.17;;;0.90;;
65358;SDS011;52491;45.900;6.346;2023-04-03T05:45:09;3.78;;;1.50;;
65358;SDS011;52491;45.900;6.346;2023-04-03T05:47:35;4.90;;;1.10;;
65358;SDS011;52491;45.900;6.346;2023-04-03T05:50:01;4.50;;;1.02;;
65358;SDS011;52491;45.900;6.346;2023-04-03T05:52:27;3.10;;;0.90;;
65358;SDS011;52491;45.900;6.346;2023-04-03T05:55:03;1.67;;;1.05;;
65358;SDS011;52491;45.900;6.346;2023-04-03T05:57:30;1.75;;;1.20;;
65358;SDS011;52491;45.900;6.346;2023-04-03T05:59:56;2.72;;;1.00;;
65358;SDS011;52491;45.900;6.346;2023-04-03T06:02:23;5.82;;;1.10;;
65358;SDS011;52491;45.900;6.346;2023-04-03T06:04:51;4.80;;;1.85;;
65358;SDS011;52491;45.900;6.346;2023-04-03T06:07:18;7.25;;;1.38;;
65358;SDS011;52491;45.900;6.346;2023-04-03T06:09:47;5.82;;;1.58;;
65358;SDS011;52491;45.900;6.346;2023-04-03T06:12:13;7.88;;;1.92;;
65358;SDS011;52491;45.900;6.346;2023-04-03T06:14:39;3.45;;;1.48;;
65358;SDS011;52491;45.900;6.346;2023-04-03T06:17:06;3.50;;;1.40;;
65358;SDS011;52491;45.900;6.346;2023-04-03T06:19:33;2.35;;;1.65;;
65358;SDS011;52491;45.900;6.346;2023-04-03T06:21:59;3.63;;;1.65;;
65358;SDS011;52491;45.900;6.346;2023-04-03T06:24:25;4.70;;;1.55;;
65358;SDS011;52491;45.900;6.346;2023-04-03T06:26:51;1.83;;;1.38;;
65358;SDS011;52491;45.900;6.346;2023-04-03T06:29:18;4.55;;;1.75;;
65358;SDS011;52491;45.900;6.346;2023-04-03T06:31:44;1.90;;;1.20;;
65358;SDS011;52491;45.900;6.346;2023-04-03T06:34:10;1.95;;;1.10;;
65358;SDS011;52491;45.900;6.346;2023-04-03T06:36:37;3.53;;;1.27;;
65358;SDS011;52491;45.900;6.346;2023-04-03T06:39:03;5.22;;;1.60;;
65358;SDS011;52491;45.900;6.346;2023-04-03T06:41:30;3.30;;;1.55;;
65358;SDS011;52491;45.900;6.346;2023-04-03T06:43:56;6.40;;;2.30;;
65358;SDS011;52491;45.900;6.346;2023-04-03T06:46:23;2.65;;;1.60;;
65358;SDS011;52491;45.900;6.346;2023-04-03T06:48:49;1.85;;;1.13;;
65358;SDS011;52491;45.900;6.346;2023-04-03T06:51:25;1.23;;;0.80;;
65358;SDS011;52491;45.900;6.346;2023-04-03T06:53:53;2.10;;;1.42;;
65358;SDS011;52491;45.900;6.346;2023-04-03T06:56:20;1.30;;;0.90;;
65358;SDS011;52491;45.900;6.346;2023-04-03T06:58:47;2.40;;;1.50;;
65358;SDS011;52491;45.900;6.346;2023-04-03T07:01:14;1.33;;;1.17;;
65358;SDS011;52491;45.900;6.346;2023-04-03T07:03:41;1.85;;;1.40;;
65358;SDS011;52491;45.900;6.346;2023-04-03T07:06:08;1.88;;;1.05;;
65358;SDS011;52491;45.900;6.346;2023-04-03T07:08:37;2.17;;;1.00;;
65358;SDS011;52491;45.900;6.346;2023-04-03T07:11:03;2.13;;;1.15;;
65358;SDS011;52491;45.900;6.346;2023-04-03T07:13:30;2.55;;;1.10;;
65358;SDS011;52491;45.900;6.346;2023-04-03T07:15:56;1.40;;;0.88;;
65358;SDS011;52491;45.900;6.346;2023-04-03T07:18:22;1.38;;;1.13;;
65358;SDS011;52491;45.900;6.346;2023-04-03T07:20:48;1.55;;;1.15;;
65358;SDS011;52491;45.900;6.346;2023-04-03T07:23:14;2.17;;;1.17;;
65358;SDS011;52491;45.900;6.346;2023-04-03T07:25:46;1.05;;;0.95;;
65358;SDS011;52491;45.900;6.346;2023-04-03T07:28:13;2.08;;;1.40;;
65358;SDS011;52491;45.900;6.346;2023-04-03T07:30:45;1.67;;;1.08;;
65358;SDS011;52491;45.900;6.346;2023-04-03T07:33:12;0.93;;;0.82;;
65358;SDS011;52491;45.900;6.346;2023-04-03T07:35:39;2.40;;;1.33;;
65358;SDS011;52491;45.900;6.346;2023-04-03T07:38:05;2.80;;;1.30;;
65358;SDS011;52491;45.900;6.346;2023-04-03T07:40:31;1.65;;;1.15;;
65358;SDS011;52491;45.900;6.346;2023-04-03T07:42:57;2.33;;;1.30;;
65358;SDS011;52491;45.900;6.346;2023-04-03T07:45:23;2.80;;;0.98;;
65358;SDS011;52491;45.900;6.346;2023-04-03T07:47:49;1.58;;;1.02;;
65358;SDS011;52491;45.900;6.346;2023-04-03T07:50:15;1.90;;;1.23;;
65358;SDS011;52491;45.900;6.346;2023-04-03T07:52:41;2.08;;;1.48;;
65358;SDS011;52491;45.900;6.346;2023-04-03T07:55:07;1.38;;;1.27;;
65358;SDS011;52491;45.900;6.346;2023-04-03T07:57:33;1.75;;;1.38;;
65358;SDS011;52491;45.900;6.346;2023-04-03T07:59:58;1.00;;;0.88;;
65358;SDS011;52491;45.900;6.346;2023-04-03T08:02:24;1.85;;;1.27;;
65358;SDS011;52491;45.900;6.346;2023-04-03T08:04:50;2.90;;;1.80;;
65358;SDS011;52491;45.900;6.346;2023-04-03T08:07:16;3.25;;;1.25;;
65358;SDS011;52491;45.900;6.346;2023-04-03T08:09:41;1.35;;;1.00;;
65358;SDS011;52491;45.900;6.346;2023-04-03T08:12:07;1.40;;;0.85;;
65358;SDS011;52491;45.900;6.346;2023-04-03T08:14:32;1.30;;;1.00;;
65358;SDS011;52491;45.900;6.346;2023-04-03T08:16:59;1.27;;;1.10;;
65358;SDS011;52491;45.900;6.346;2023-04-03T08:19:26;1.27;;;1.10;;
65358;SDS011;52491;45.900;6.346;2023-04-03T08:21:55;4.95;;;1.02;;
65358;SDS011;52491;45.900;6.346;2023-04-03T08:24:23;0.98;;;0.82;;
65358;SDS011;52491;45.900;6.346;2023-04-03T08:26:49;0.73;;;0.65;;
65358;SDS011;52491;45.900;6.346;2023-04-03T08:29:15;1.63;;;0.80;;
65358;SDS011;52491;45.900;6.346;2023-04-03T08:31:40;0.85;;;0.77;;
65358;SDS011;52491;45.900;6.346;2023-04-03T08:34:06;0.85;;;0.70;;
65358;SDS011;52491;45.900;6.346;2023-04-03T08:36:33;1.70;;;0.85;;
65358;SDS011;52491;45.900;6.346;2023-04-03T08:39:00;1.02;;;0.80;;
65358;SDS011;52491;45.900;6.346;2023-04-03T08:41:32;1.10;;;0.80;;
65358;SDS011;52491;45.900;6.346;2023-04-03T08:46:40;1.42;;;1.13;;
65358;SDS011;52491;45.900;6.346;2023-04-03T08:50:02;1.33;;;1.05;;
65358;SDS011;52491;45.900;6.346;2023-04-03T08:55:27;1.50;;;0.82;;
65358;SDS011;52491;45.900;6.346;2023-04-03T09:00:34;1.05;;;0.88;;
65358;SDS011;52491;45.900;6.346;2023-04-03T09:03:17;0.60;;;0.60;;
65358;SDS011;52491;45.900;6.346;2023-04-03T09:08:23;1.85;;;1.25;;
65358;SDS011;52491;45.900;6.346;2023-04-03T09:10:55;1.00;;;0.82;;
65358;SDS011;52491;45.900;6.346;2023-04-03T09:13:57;4.22;;;1.10;;
65358;SDS011;52491;45.900;6.346;2023-04-03T09:16:32;1.50;;;1.23;;
65358;SDS011;52491;45.900;6.346;2023-04-03T09:21:58;1.80;;;1.00;;
65358;SDS011;52491;45.900;6.346;2023-04-03T09:24:27;1.10;;;0.85;;
65358;SDS011;52491;45.900;6.346;2023-04-03T09:29:20;1.45;;;1.15;;
65358;SDS011;52491;45.900;6.346;2023-04-03T09:31:49;3.75;;;1.20;;
65358;SDS011;52491;45.900;6.346;2023-04-03T09:36:49;1.92;;;1.05;;
65358;SDS011;52491;45.900;6.346;2023-04-03T09:39:19;1.42;;;1.00;;
65358;SDS011;52491;45.900;6.346;2023-04-03T09:42:05;1.77;;;0.90;;
65358;SDS011;52491;45.900;6.346;2023-04-03T09:44:54;7.43;;;1.30;;
65358;SDS011;52491;45.900;6.346;2023-04-03T09:47:32;6.00;;;1.35;;
65358;SDS011;52491;45.900;6.346;2023-04-03T09:52:40;1.35;;;1.08;;
65358;SDS011;52491;45.900;6.346;2023-04-03T09:55:18;2.67;;;1.30;;
65358;SDS011;52491;45.900;6.346;2023-04-03T09:57:47;2.47;;;0.82;;
65358;SDS011;52491;45.900;6.346;2023-04-03T10:02:58;3.17;;;1.45;;
65358;SDS011;52491;45.900;6.346;2023-04-03T10:05:39;2.35;;;0.90;;
65358;SDS011;52491;45.900;6.346;2023-04-03T10:08:07;2.47;;;1.13;;
65358;SDS011;52491;45.900;6.346;2023-04-03T10:10:40;5.80;;;1.30;;
65358;SDS011;52491;45.900;6.346;2023-04-03T10:13:10;2.13;;;0.80;;
65358;SDS011;52491;45.900;6.346;2023-04-03T10:16:06;2.58;;;0.98;;
65358;SDS011;52491;45.900;6.346;2023-04-03T10:21:06;1.02;;;0.93;;
65358;SDS011;52491;45.900;6.346;2023-04-03T10:23:50;0.90;;;0.77;;
65358;SDS011;52491;45.900;6.346;2023-04-03T10:34:45;0.60;;;0.60;;
65358;SDS011;52491;45.900;6.346;2023-04-03T10:37:23;0.82;;;0.82;;
65358;SDS011;52491;45.900;6.346;2023-04-03T10:45:29;3.33;;;1.67;;
65358;SDS011;52491;45.900;6.346;2023-04-03T10:48:16;1.58;;;1.48;;
65358;SDS011;52491;45.900;6.346;2023-04-03T10:56:37;1.50;;;1.40;;
65358;SDS011;52491;45.900;6.346;2023-04-03T11:01:56;2.25;;;1.27;;
65358;SDS011;52491;45.900;6.346;2023-04-03T11:04:27;1.65;;;1.10;;
65358;SDS011;52491;45.900;6.346;2023-04-03T11:07:01;1.40;;;1.15;;
65358;SDS011;52491;45.900;6.346;2023-04-03T11:09:38;1.15;;;0.88;;
65358;SDS011;52491;45.900;6.346;2023-04-03T11:12:14;1.08;;;0.77;;
65358;SDS011;52491;45.900;6.346;2023-04-03T11:14:44;0.70;;;0.70;;
65358;SDS011;52491;45.900;6.346;2023-04-03T11:25:26;1.52;;;0.57;;
65358;SDS011;52491;45.900;6.346;2023-04-03T11:27:59;2.00;;;0.85;;
65358;SDS011;52491;45.900;6.346;2023-04-03T11:30:30;2.88;;;0.60;;
65358;SDS011;52491;45.900;6.346;2023-04-03T11:33:22;2.67;;;1.05;;
65358;SDS011;52491;45.900;6.346;2023-04-03T11:36:45;1.40;;;0.50;;
65358;SDS011;52491;45.900;6.346;2023-04-03T11:41:55;0.60;;;0.50;;
65358;SDS011;52491;45.900;6.346;2023-04-03T11:47:50;0.45;;;0.45;;
65358;SDS011;52491;45.900;6.346;2023-04-03T11:52:59;0.40;;;0.35;;
65358;SDS011;52491;45.900;6.346;2023-04-03T12:05:51;0.25;;;0.25;;
65358;SDS011;52491;45.900;6.346;2023-04-03T12:08:24;2.17;;;0.68;;
65358;SDS011;52491;45.900;6.346;2023-04-03T12:11:50;1.58;;;0.75;;
65358;SDS011;52491;45.900;6.346;2023-04-03T12:16:30;1.30;;;0.40;;
65358;SDS011;52491;45.900;6.346;2023-04-03T12:24:29;0.77;;;0.40;;
65358;SDS011;52491;45.900;6.346;2023-04-03T12:46:02;0.73;;;0.40;;
65358;SDS011;52491;45.900;6.346;2023-04-03T12:51:09;0.20;;;0.20;;
65358;SDS011;52491;45.900;6.346;2023-04-03T12:53:44;0.50;;;0.50;;
65358;SDS011;52491;45.900;6.346;2023-04-03T12:58:54;0.30;;;0.30;;
65358;SDS011;52491;45.900;6.346;2023-04-03T13:01:37;1.17;;;0.60;;
65358;SDS011;52491;45.900;6.346;2023-04-03T13:04:02;0.60;;;0.30;;
65358;SDS011;52491;45.900;6.346;2023-04-03T13:06:42;0.65;;;0.40;;
65358;SDS011;52491;45.900;6.346;2023-04-03T13:09:25;0.30;;;0.30;;
65358;SDS011;52491;45.900;6.346;2023-04-03T13:14:48;0.30;;;0.30;;
65358;SDS011;52491;45.900;6.346;2023-04-03T13:17:18;0.40;;;0.40;;
65358;SDS011;52491;45.900;6.346;2023-04-03T13:19:44;0.30;;;0.30;;
65358;SDS011;52491;45.900;6.346;2023-04-03T13:22:29;0.60;;;0.40;;
65358;SDS011;52491;45.900;6.346;2023-04-03T13:25:06;0.30;;;0.30;;
65358;SDS011;52491;45.900;6.346;2023-04-03T13:27:34;0.57;;;0.40;;
65358;SDS011;52491;45.900;6.346;2023-04-03T13:30:00;0.30;;;0.30;;
65358;SDS011;52491;45.900;6.346;2023-04-03T13:32:28;9.82;;;0.75;;
65358;SDS011;52491;45.900;6.346;2023-04-03T13:34:55;0.20;;;0.20;;
65358;SDS011;52491;45.900;6.346;2023-04-03T13:42:33;0.20;;;0.20;;
65358;SDS011;52491;45.900;6.346;2023-04-03T13:47:43;0.65;;;0.38;;
65358;SDS011;52491;45.900;6.346;2023-04-03T13:52:54;0.50;;;0.38;;
65358;SDS011;52491;45.900;6.346;2023-04-03T13:55:28;0.20;;;0.20;;
65358;SDS011;52491;45.900;6.346;2023-04-03T13:58:51;0.52;;;0.40;;
65358;SDS011;52491;45.900;6.346;2023-04-03T14:00:48;0.30;;;0.30;;
65358;SDS011;52491;45.900;6.346;2023-04-03T14:03:31;0.45;;;0.40;;
65358;SDS011;52491;45.900;6.346;2023-04-03T14:06:17;1.60;;;0.50;;
65358;SDS011;52491;45.900;6.346;2023-04-03T14:08:44;0.88;;;0.50;;
65358;SDS011;52491;45.900;6.346;2023-04-03T14:11:15;0.40;;;0.40;;
65358;SDS011;52491;45.900;6.346;2023-04-03T14:13:45;0.63;;;0.47;;
65358;SDS011;52491;45.900;6.346;2023-04-03T14:16:17;0.32;;;0.30;;
65358;SDS011;52491;45.900;6.346;2023-04-03T14:18:45;0.75;;;0.50;;
65358;SDS011;52491;45.900;6.346;2023-04-03T14:21:13;0.82;;;0.60;;
65358;SDS011;52491;45.900;6.346;2023-04-03T14:23:40;0.63;;;0.50;;
65358;SDS011;52491;45.900;6.346;2023-04-03T14:26:24;1.35;;;0.40;;
65358;SDS011;52491;45.900;6.346;2023-04-03T14:28:53;3.10;;;0.55;;
65358;SDS011;52491;45.900;6.346;2023-04-03T14:31:20;0.30;;;0.30;;
65358;SDS011;52491;45.900;6.346;2023-04-03T14:33:49;1.30;;;0.40;;
65358;SDS011;52491;45.900;6.346;2023-04-03T14:36:20;2.25;;;0.82;;
65358;SDS011;52491;45.900;6.346;2023-04-03T14:38:47;1.05;;;0.30;;
65358;SDS011;52491;45.900;6.346;2023-04-03T14:41:15;0.30;;;0.30;;
65358;SDS011;52491;45.900;6.346;2023-04-03T14:43:42;0.65;;;0.50;;
65358;SDS011;52491;45.900;6.346;2023-04-03T14:46:13;0.40;;;0.30;;
65358;SDS011;52491;45.900;6.346;2023-04-03T14:48:42;0.28;;;0.25;;
65358;SDS011;52491;45.900;6.346;2023-04-03T14:51:10;0.43;;;0.43;;
65358;SDS011;52491;45.900;6.346;2023-04-03T14:53:37;0.57;;;0.40;;
65358;SDS011;52491;45.900;6.346;2023-04-03T14:56:11;0.50;;;0.50;;
65358;SDS011;52491;45.900;6.346;2023-04-03T14:59:04;0.70;;;0.60;;
65358;SDS011;52491;45.900;6.346;2023-04-03T15:01:35;0.88;;;0.60;;
65358;SDS011;52491;45.900;6.346;2023-04-03T15:04:04;2.83;;;0.60;;
65358;SDS011;52491;45.900;6.346;2023-04-03T15:06:50;1.08;;;0.80;;
65358;SDS011;52491;45.900;6.346;2023-04-03T15:09:19;2.42;;;0.70;;
65358;SDS011;52491;45.900;6.346;2023-04-03T15:11:49;0.50;;;0.50;;
65358;SDS011;52491;45.900;6.346;2023-04-03T15:14:16;0.75;;;0.70;;
65358;SDS011;52491;45.900;6.346;2023-04-03T15:16:41;0.80;;;0.40;;
65358;SDS011;52491;45.900;6.346;2023-04-03T15:19:07;0.55;;;0.40;;
65358;SDS011;52491;45.900;6.346;2023-04-03T15:21:32;1.02;;;0.73;;
65358;SDS011;52491;45.900;6.346;2023-04-03T15:23:58;0.32;;;0.32;;
65358;SDS011;52491;45.900;6.346;2023-04-03T15:26:24;0.60;;;0.50;;
65358;SDS011;52491;45.900;6.346;2023-04-03T15:28:50;5.30;;;0.68;;
65358;SDS011;52491;45.900;6.346;2023-04-03T15:31:16;0.55;;;0.50;;
65358;SDS011;52491;45.900;6.346;2023-04-03T15:33:41;3.08;;;0.50;;
65358;SDS011;52491;45.900;6.346;2023-04-03T15:36:07;1.90;;;0.50;;
65358;SDS011;52491;45.900;6.346;2023-04-03T15:38:33;0.85;;;0.55;;
65358;SDS011;52491;45.900;6.346;2023-04-03T15:40:59;0.57;;;0.57;;
65358;SDS011;52491;45.900;6.346;2023-04-03T15:43:25;0.30;;;0.30;;
65358;SDS011;52491;45.900;6.346;2023-04-03T15:45:51;0.60;;;0.60;;
65358;SDS011;52491;45.900;6.346;2023-04-03T15:48:17;1.63;;;0.40;;
65358;SDS011;52491;45.900;6.346;2023-04-03T15:50:43;1.13;;;0.38;;
65358;SDS011;52491;45.900;6.346;2023-04-03T15:53:10;2.92;;;0.50;;
65358;SDS011;52491;45.900;6.346;2023-04-03T15:55:37;0.98;;;0.38;;
65358;SDS011;52491;45.900;6.346;2023-04-03T15:58:04;3.38;;;0.60;;
65358;SDS011;52491;45.900;6.346;2023-04-03T16:00:31;3.00;;;0.50;;
65358;SDS011;52491;45.900;6.346;2023-04-03T16:03:04;0.40;;;0.40;;
65358;SDS011;52491;45.900;6.346;2023-04-03T16:05:36;7.55;;;0.80;;
65358;SDS011;52491;45.900;6.346;2023-04-03T16:08:04;3.03;;;1.08;;
65358;SDS011;52491;45.900;6.346;2023-04-03T16:10:33;6.60;;;0.40;;
65358;SDS011;52491;45.900;6.346;2023-04-03T16:12:59;1.95;;;0.57;;
65358;SDS011;52491;45.900;6.346;2023-04-03T16:15:25;1.17;;;0.50;;
65358;SDS011;52491;45.900;6.346;2023-04-03T16:17:53;0.60;;;0.60;;
65358;SDS011;52491;45.900;6.346;2023-04-03T16:20:20;0.52;;;0.40;;
65358;SDS011;52491;45.900;6.346;2023-04-03T16:22:47;1.55;;;0.70;;
65358;SDS011;52491;45.900;6.346;2023-04-03T16:25:15;0.88;;;0.38;;
65358;SDS011;52491;45.900;6.346;2023-04-03T16:27:41;1.95;;;0.60;;
65358;SDS011;52491;45.900;6.346;2023-04-03T16:30:09;0.75;;;0.38;;
65358;SDS011;52491;45.900;6.346;2023-04-03T16:32:36;1.50;;;0.50;;
65358;SDS011;52491;45.900;6.346;2023-04-03T16:35:03;1.05;;;0.60;;
65358;SDS011;52491;45.900;6.346;2023-04-03T16:37:30;2.45;;;0.65;;
65358;SDS011;52491;45.900;6.346;2023-04-03T16:39:56;1.92;;;0.77;;
65358;SDS011;52491;45.900;6.346;2023-04-03T16:42:23;1.33;;;0.70;;
65358;SDS011;52491;45.900;6.346;2023-04-03T16:44:50;1.73;;;1.08;;
65358;SDS011;52491;45.900;6.346;2023-04-03T16:47:16;2.47;;;1.20;;
65358;SDS011;52491;45.900;6.346;2023-04-03T16:49:45;2.65;;;0.80;;
65358;SDS011;52491;45.900;6.346;2023-04-03T16:52:12;1.70;;;0.50;;
65358;SDS011;52491;45.900;6.346;2023-04-03T16:54:40;0.85;;;0.60;;
65358;SDS011;52491;45.900;6.346;2023-04-03T16:57:07;5.18;;;1.13;;
65358;SDS011;52491;45.900;6.346;2023-04-03T16:59:34;5.05;;;1.52;;
65358;SDS011;52491;45.900;6.346;2023-04-03T17:02:00;12.15;;;2.55;;
65358;SDS011;52491;45.900;6.346;2023-04-03T17:04:26;14.95;;;3.05;;
65358;SDS011;52491;45.900;6.346;2023-04-03T17:06:53;13.20;;;4.35;;